Time;durP1;ratioP1;P1;durP2;ratioP2;P2;SDS_P1;SDS_P2;PMS_P1;PMS_P2;Temp;Humidity;BMP_temperature;BMP_pressure;BME280_temperature;BME280_humidity;BME280_pressure;Samples;Min_cycle;Max_cycle;Signal;HPM_P1;HPM_P2
2023/04/19 00:01:22;;;;;;;1.37;1.37;;;11.40;99.90;;;;;;4996571;28;20261;-65
2023/04/19 00:03:49;;;;;;;1.20;1.20;;;11.40;99.90;;;;;;5008085;28;20293;-65
2023/04/19 00:06:16;;;;;;;1.33;1.33;;;11.30;99.90;;;;;;4996177;28;20234;-65
2023/04/19 00:08:43;;;;;;;1.40;1.40;;;11.20;99.90;;;;;;4991714;28;20198;-65
2023/04/19 00:11:10;;;;;;;1.10;1.10;;;11.10;99.90;;;;;;4990025;28;20240;-64
2023/04/19 00:13:37;;;;;;;1.20;1.20;;;11.10;99.90;;;;;;4980709;28;20298;-64
2023/04/19 00:16:05;;;;;;;1.20;1.20;;;11.10;99.90;;;;;;4988455;28;20213;-64
2023/04/19 00:18:33;;;;;;;1.60;1.50;;;11.10;99.90;;;;;;4980126;28;20214;-63
2023/04/19 00:21:01;;;;;;;1.40;1.40;;;11.00;99.90;;;;;;4985751;28;20207;-64
2023/04/19 00:23:28;;;;;;;1.30;1.30;;;11.10;99.90;;;;;;4987512;28;20245;-63
2023/04/19 00:25:55;;;;;;;1.40;1.40;;;11.00;99.90;;;;;;4973661;28;20238;-63
2023/04/19 00:28:21;;;;;;;1.40;1.30;;;11.10;99.90;;;;;;4976115;28;20704;-64
2023/04/19 00:30:48;;;;;;;1.30;1.30;;;11.20;99.90;;;;;;4976131;28;20230;-65
2023/04/19 00:33:15;;;;;;;1.40;1.40;;;11.20;99.90;;;;;;4976160;28;20562;-65
2023/04/19 00:35:43;;;;;;;1.30;1.30;;;11.30;99.90;;;;;;4975623;28;20217;-65
2023/04/19 00:38:10;;;;;;;1.10;1.10;;;11.30;99.90;;;;;;4973528;28;20211;-65
2023/04/19 00:40:37;;;;;;;1.20;1.20;;;11.30;99.90;;;;;;4972575;28;20230;-64
2023/04/19 00:43:04;;;;;;;1.10;1.10;;;11.30;99.90;;;;;;4980788;28;20202;-64
2023/04/19 00:45:34;;;;;;;1.30;1.30;;;11.30;99.90;;;;;;4993070;28;20219;-65
2023/04/19 00:48:01;;;;;;;1.40;1.30;;;11.30;99.90;;;;;;4993395;28;20220;-65
2023/04/19 00:50:29;;;;;;;1.37;1.37;;;11.30;99.90;;;;;;4995480;28;20297;-65
2023/04/19 00:52:58;;;;;;;1.20;1.20;;;11.30;99.90;;;;;;5001385;28;20206;-63
2023/04/19 00:55:25;;;;;;;1.20;1.20;;;11.30;99.90;;;;;;5001247;28;20252;-65
2023/04/19 00:57:51;;;;;;;1.40;1.30;;;11.20;99.90;;;;;;5006086;28;20220;-64
2023/04/19 01:00:19;;;;;;;1.20;1.20;;;11.20;99.90;;;;;;5001097;28;20329;-64
2023/04/19 01:02:46;;;;;;;1.20;1.20;;;11.30;99.90;;;;;;5002746;28;20209;-64
2023/04/19 01:05:13;;;;;;;1.30;1.30;;;11.30;99.90;;;;;;4998575;28;20716;-66
2023/04/19 01:07:40;;;;;;;1.23;1.23;;;11.30;99.90;;;;;;4995250;28;20213;-65
2023/04/19 01:10:09;;;;;;;1.20;1.20;;;11.30;99.90;;;;;;4999217;28;20297;-65
2023/04/19 01:12:36;;;;;;;1.53;1.43;;;11.30;99.90;;;;;;4997362;28;20221;-64
2023/04/19 01:15:04;;;;;;;1.30;1.30;;;11.30;99.90;;;;;;4997123;28;20550;-65
2023/04/19 01:17:32;;;;;;;1.20;1.20;;;11.30;99.90;;;;;;4994534;28;20206;-65
2023/04/19 01:20:00;;;;;;;1.30;1.30;;;11.30;99.90;;;;;;4993927;28;20222;-65
2023/04/19 01:22:28;;;;;;;1.20;1.20;;;11.40;99.90;;;;;;4996967;28;20206;-63
2023/04/19 01:24:56;;;;;;;1.30;1.30;;;11.40;99.90;;;;;;4997027;28;20704;-65
2023/04/19 01:27:23;;;;;;;1.30;1.30;;;11.40;99.90;;;;;;4999013;28;20309;-65
2023/04/19 01:29:50;;;;;;;1.60;1.50;;;11.40;99.90;;;;;;4998055;28;20256;-64
2023/04/19 01:32:17;;;;;;;1.33;1.33;;;11.40;99.90;;;;;;4997435;28;20646;-63
2023/04/19 01:34:43;;;;;;;1.10;1.10;;;11.30;99.90;;;;;;4997303;28;20233;-64
2023/04/19 01:37:10;;;;;;;1.30;1.30;;;11.30;99.90;;;;;;4997608;28;20210;-64
2023/04/19 01:39:38;;;;;;;1.00;1.00;;;11.30;99.90;;;;;;4997101;28;20229;-64
2023/04/19 01:42:05;;;;;;;1.50;1.50;;;11.20;99.90;;;;;;4998111;28;20300;-64
2023/04/19 01:44:32;;;;;;;1.20;1.20;;;11.10;99.90;;;;;;4998341;28;20249;-64
2023/04/19 01:46:59;;;;;;;1.33;1.33;;;11.00;99.90;;;;;;4997614;28;20292;-64
2023/04/19 01:49:26;;;;;;;1.50;1.50;;;11.00;99.90;;;;;;4996118;28;20320;-64
2023/04/19 01:51:52;;;;;;;1.13;1.13;;;11.00;99.90;;;;;;4996105;28;20205;-63
2023/04/19 01:54:19;;;;;;;1.20;1.20;;;11.10;99.90;;;;;;4999506;28;20216;-65
2023/04/19 01:56:47;;;;;;;1.23;1.23;;;11.10;99.90;;;;;;5003543;28;20265;-65
2023/04/19 01:59:15;;;;;;;1.27;1.27;;;11.20;99.90;;;;;;4995693;28;20591;-64
2023/04/19 02:01:42;;;;;;;1.40;1.40;;;11.30;99.90;;;;;;4995837;28;20210;-64
2023/04/19 02:04:09;;;;;;;1.33;1.33;;;11.20;99.90;;;;;;4996402;28;20220;-64
2023/04/19 02:06:36;;;;;;;1.27;1.27;;;11.20;99.90;;;;;;4995656;28;20216;-64
2023/04/19 02:09:03;;;;;;;1.23;1.23;;;11.20;99.90;;;;;;4993873;28;20317;-64
2023/04/19 02:11:30;;;;;;;1.30;1.30;;;11.20;99.90;;;;;;4994736;28;20240;-65
2023/04/19 02:13:58;;;;;;;1.33;1.33;;;11.20;99.90;;;;;;4995423;28;20636;-64
2023/04/19 02:16:25;;;;;;;1.40;1.40;;;11.20;99.90;;;;;;4994959;28;20213;-64
2023/04/19 02:18:52;;;;;;;1.30;1.30;;;11.20;99.90;;;;;;4995319;28;20206;-64
2023/04/19 02:21:19;;;;;;;1.27;1.27;;;11.10;99.90;;;;;;4994282;28;20205;-65
2023/04/19 02:23:45;;;;;;;1.30;1.30;;;11.10;99.90;;;;;;4994279;28;20301;-65
2023/04/19 02:26:12;;;;;;;1.30;1.30;;;11.10;99.90;;;;;;4996723;28;20205;-65
2023/04/19 02:28:39;;;;;;;1.27;1.27;;;11.10;99.90;;;;;;5002436;28;20237;-65
2023/04/19 02:31:07;;;;;;;1.30;1.30;;;11.10;99.90;;;;;;5000082;28;20226;-64
2023/04/19 02:33:35;;;;;;;1.57;1.43;;;11.20;99.90;;;;;;4999870;28;20245;-65
2023/04/19 02:36:02;;;;;;;1.20;1.20;;;11.20;99.90;;;;;;5000488;28;20229;-64
2023/04/19 02:38:28;;;;;;;1.30;1.30;;;11.20;99.90;;;;;;5001102;28;20201;-64
2023/04/19 02:40:55;;;;;;;1.40;1.40;;;11.20;99.90;;;;;;4996929;28;20222;-65
2023/04/19 02:43:22;;;;;;;1.30;1.30;;;11.20;99.90;;;;;;4994067;28;20693;-65
2023/04/19 02:45:49;;;;;;;1.30;1.30;;;11.10;99.90;;;;;;4994205;28;20222;-64
2023/04/19 02:48:17;;;;;;;1.30;1.30;;;11.10;99.90;;;;;;4994951;28;20301;-64
2023/04/19 02:50:44;;;;;;;1.50;1.50;;;11.20;99.90;;;;;;4993134;28;20297;-64
2023/04/19 02:53:11;;;;;;;1.30;1.30;;;11.20;99.90;;;;;;4997628;28;20762;-65
2023/04/19 02:55:38;;;;;;;1.40;1.30;;;11.30;99.90;;;;;;4993956;28;20221;-65
2023/04/19 02:58:05;;;;;;;1.30;1.30;;;11.30;99.90;;;;;;4993836;28;20205;-64
2023/04/19 03:00:32;;;;;;;1.20;1.20;;;11.40;99.90;;;;;;4992599;28;20743;-64
2023/04/19 03:02:59;;;;;;;1.40;1.30;;;11.40;99.90;;;;;;4993920;28;20205;-64
2023/04/19 03:05:27;;;;;;;1.47;1.47;;;11.40;99.90;;;;;;4993955;28;20216;-65
2023/04/19 03:07:54;;;;;;;1.43;1.43;;;11.40;99.90;;;;;;4994646;28;20212;-63
2023/04/19 03:10:21;;;;;;;1.40;1.40;;;11.30;99.90;;;;;;4993142;28;20226;-64
2023/04/19 03:12:48;;;;;;;1.30;1.30;;;11.20;99.90;;;;;;4994374;28;20202;-64
2023/04/19 03:15:15;;;;;;;1.45;1.35;;;11.30;99.90;;;;;;4995306;28;20220;-65
2023/04/19 03:17:42;;;;;;;1.40;1.40;;;11.30;99.90;;;;;;4996185;28;20475;-65
2023/04/19 03:20:10;;;;;;;1.40;1.30;;;11.30;99.90;;;;;;4994584;28;20315;-64
2023/04/19 03:22:39;;;;;;;1.40;1.40;;;11.30;99.90;;;;;;4997303;28;20214;-64
2023/04/19 03:25:07;;;;;;;1.37;1.37;;;11.40;99.90;;;;;;4994953;28;20216;-65
2023/04/19 03:27:35;;;;;;;1.40;1.40;;;11.40;99.90;;;;;;4995867;28;20631;-65
2023/04/19 03:30:02;;;;;;;1.30;1.30;;;11.30;99.90;;;;;;4992956;28;20230;-65
2023/04/19 03:32:29;;;;;;;1.60;1.50;;;11.30;99.90;;;;;;4994536;28;20693;-65
2023/04/19 03:34:56;;;;;;;1.40;1.40;;;11.20;99.90;;;;;;4994512;28;20209;-64
2023/04/19 03:37:22;;;;;;;1.60;1.60;;;11.20;99.90;;;;;;4995378;28;20305;-65
2023/04/19 03:39:51;;;;;;;1.47;1.47;;;11.10;99.90;;;;;;4995812;28;20225;-65
2023/04/19 03:42:18;;;;;;;1.33;1.33;;;11.00;99.90;;;;;;4996253;28;20464;-65
2023/04/19 03:44:45;;;;;;;1.33;1.33;;;11.10;99.90;;;;;;4997885;28;20217;-64
2023/04/19 03:47:12;;;;;;;1.30;1.30;;;11.20;99.90;;;;;;5001353;28;20245;-64
2023/04/19 03:49:39;;;;;;;1.30;1.30;;;11.20;99.90;;;;;;5001014;28;20736;-65
2023/04/19 03:52:06;;;;;;;1.43;1.43;;;11.30;99.90;;;;;;4993120;28;20232;-63
2023/04/19 03:54:32;;;;;;;1.50;1.50;;;11.20;99.90;;;;;;4991486;28;20796;-62
2023/04/19 03:57:01;;;;;;;1.33;1.33;;;11.20;99.90;;;;;;4992917;28;20202;-64
2023/04/19 03:59:28;;;;;;;1.30;1.30;;;11.10;99.90;;;;;;4991152;28;20316;-64
2023/04/19 04:01:54;;;;;;;1.73;1.47;;;11.20;99.90;;;;;;4994057;28;20212;-64
2023/04/19 04:04:21;;;;;;;1.40;1.40;;;11.20;99.90;;;;;;4994807;28;20239;-65
2023/04/19 04:06:48;;;;;;;1.30;1.30;;;11.20;99.90;;;;;;4995523;28;20958;-65
2023/04/19 04:09:15;;;;;;;1.20;1.20;;;11.20;99.90;;;;;;4994160;28;20222;-64
2023/04/19 04:11:42;;;;;;;1.20;1.20;;;11.30;99.90;;;;;;4992563;28;20313;-65
2023/04/19 04:14:10;;;;;;;1.50;1.40;;;11.30;99.90;;;;;;4991031;28;20209;-64
2023/04/19 04:16:37;;;;;;;1.47;1.47;;;11.30;99.90;;;;;;4992841;28;20217;-65
2023/04/19 04:19:03;;;;;;;1.40;1.40;;;11.40;99.90;;;;;;4992896;28;20221;-65
2023/04/19 04:21:30;;;;;;;1.37;1.37;;;11.30;99.90;;;;;;4993034;28;20210;-65
2023/04/19 04:23:57;;;;;;;1.23;1.23;;;11.30;99.90;;;;;;5008344;28;20277;-64
2023/04/19 04:26:29;;;;;;;1.40;1.40;;;11.30;99.90;;;;;;5008656;28;20206;-64
2023/04/19 04:28:56;;;;;;;1.60;1.60;;;11.30;99.90;;;;;;5006328;28;20229;-64
2023/04/19 04:31:24;;;;;;;1.50;1.50;;;11.20;99.90;;;;;;5006177;28;20226;-66
2023/04/19 04:33:53;;;;;;;1.53;1.50;;;11.40;99.90;;;;;;5007380;28;20217;-69
2023/04/19 04:36:20;;;;;;;1.40;1.40;;;11.10;99.90;;;;;;5005314;28;20205;-65
2023/04/19 04:38:47;;;;;;;1.53;1.50;;;11.10;99.90;;;;;;4998638;28;20304;-64
2023/04/19 04:41:15;;;;;;;1.40;1.40;;;11.00;99.90;;;;;;4992016;28;20202;-63
2023/04/19 04:43:42;;;;;;;1.67;1.57;;;11.00;99.90;;;;;;4995141;28;20697;-65
2023/04/19 04:46:09;;;;;;;1.80;1.70;;;11.00;99.90;;;;;;4994898;28;20224;-64
2023/04/19 04:48:37;;;;;;;1.63;1.53;;;11.00;99.90;;;;;;4993617;28;20210;-64
2023/04/19 04:51:04;;;;;;;1.60;1.50;;;10.90;99.90;;;;;;4992868;28;20218;-64
2023/04/19 04:53:31;;;;;;;1.60;1.50;;;10.90;99.90;;;;;;4994138;28;20206;-63
2023/04/19 04:55:57;;;;;;;1.50;1.50;;;10.80;99.90;;;;;;4997738;28;20206;-64
2023/04/19 04:58:24;;;;;;;1.40;1.40;;;10.70;99.90;;;;;;4999371;28;20213;-65
2023/04/19 05:00:51;;;;;;;1.30;1.30;;;10.70;99.90;;;;;;4998732;28;20264;-64
2023/04/19 05:03:18;;;;;;;1.60;1.50;;;10.60;99.90;;;;;;4997165;28;20212;-65
2023/04/19 05:05:47;;;;;;;1.47;1.40;;;10.60;99.90;;;;;;4995002;28;20576;-64
2023/04/19 05:08:13;;;;;;;1.57;1.50;;;10.50;99.90;;;;;;5004304;28;20221;-65
2023/04/19 05:10:40;;;;;;;1.20;1.20;;;10.50;99.90;;;;;;4997337;28;20306;-65
2023/04/19 05:13:07;;;;;;;1.60;1.50;;;10.60;99.90;;;;;;5005052;28;20214;-64
2023/04/19 05:15:34;;;;;;;1.60;1.50;;;10.70;99.90;;;;;;4998352;28;20649;-63
2023/04/19 05:18:01;;;;;;;1.50;1.50;;;10.50;99.90;;;;;;4997710;28;20245;-66
2023/04/19 05:20:28;;;;;;;1.43;1.43;;;10.60;99.90;;;;;;4994326;28;20221;-63
2023/04/19 05:22:59;;;;;;;1.30;1.30;;;10.60;99.90;;;;;;4996777;28;20638;-64
2023/04/19 05:25:26;;;;;;;1.77;1.67;;;10.60;99.90;;;;;;4995159;28;20218;-63
2023/04/19 05:27:53;;;;;;;1.80;1.70;;;10.50;99.90;;;;;;4994865;28;20213;-64
2023/04/19 05:30:20;;;;;;;1.40;1.40;;;10.40;99.90;;;;;;4989729;28;20234;-64
2023/04/19 05:32:47;;;;;;;1.40;1.40;;;10.30;99.90;;;;;;4990430;28;20222;-64
2023/04/19 05:35:14;;;;;;;1.40;1.40;;;10.40;99.90;;;;;;4995630;28;20293;-62
2023/04/19 05:37:41;;;;;;;1.70;1.60;;;10.50;99.90;;;;;;4987927;28;20240;-66
2023/04/19 05:40:10;;;;;;;1.70;1.60;;;10.40;99.90;;;;;;5003736;28;20236;-63
2023/04/19 05:42:38;;;;;;;1.80;1.70;;;10.40;99.90;;;;;;5004636;28;20202;-63
2023/04/19 05:45:06;;;;;;;1.90;1.80;;;10.40;99.90;;;;;;4998016;28;20218;-64
2023/04/19 05:47:33;;;;;;;1.97;1.63;;;10.50;99.90;;;;;;4992130;28;20293;-63
2023/04/19 05:49:59;;;;;;;1.80;1.70;;;10.60;99.90;;;;;;4989150;28;20226;-64
2023/04/19 05:52:26;;;;;;;1.80;1.70;;;10.60;99.90;;;;;;4995186;28;20234;-63
2023/04/19 05:54:53;;;;;;;2.00;1.90;;;10.50;99.90;;;;;;4995996;28;20595;-63
2023/04/19 05:57:23;;;;;;;1.80;1.70;;;10.60;99.90;;;;;;4996007;28;20274;-63
2023/04/19 05:59:50;;;;;;;1.53;1.53;;;10.70;99.90;;;;;;4994909;28;20230;-64
2023/04/19 06:02:17;;;;;;;1.40;1.40;;;10.80;99.90;;;;;;4995322;28;20296;-62
2023/04/19 06:04:44;;;;;;;1.30;1.30;;;10.80;99.90;;;;;;4995675;28;20664;-63
2023/04/19 06:07:11;;;;;;;1.70;1.60;;;11.00;99.90;;;;;;4994070;28;20209;-63
2023/04/19 06:09:38;;;;;;;1.90;1.80;;;11.00;99.90;;;;;;4994607;28;20225;-64
2023/04/19 06:12:05;;;;;;;1.73;1.63;;;11.20;99.90;;;;;;4993629;28;20251;-63
2023/04/19 06:14:33;;;;;;;2.10;2.00;;;11.30;99.90;;;;;;4995837;28;20551;-64
2023/04/19 06:17:00;;;;;;;2.20;2.10;;;11.30;99.90;;;;;;5001522;28;20205;-63
2023/04/19 06:19:27;;;;;;;1.90;1.80;;;11.30;99.90;;;;;;4993739;28;20236;-64
2023/04/19 06:21:54;;;;;;;1.87;1.77;;;11.30;99.90;;;;;;4995248;28;20202;-64
2023/04/19 06:24:21;;;;;;;1.80;1.70;;;11.20;99.90;;;;;;4994790;28;20216;-63
2023/04/19 06:26:48;;;;;;;2.20;2.00;;;11.20;99.90;;;;;;4994657;28;20214;-64
2023/04/19 06:29:15;;;;;;;1.80;1.70;;;11.20;99.90;;;;;;4994401;28;20226;-62
2023/04/19 06:31:45;;;;;;;1.80;1.70;;;11.10;99.90;;;;;;4994500;28;20309;-64
2023/04/19 06:34:11;;;;;;;2.20;2.00;;;11.10;99.90;;;;;;4995127;28;20209;-63
2023/04/19 06:36:38;;;;;;;1.80;1.70;;;11.20;99.90;;;;;;4995887;28;20257;-64
2023/04/19 06:39:05;;;;;;;2.13;2.03;;;11.20;99.90;;;;;;4994243;28;20329;-64
2023/04/19 06:41:32;;;;;;;2.10;2.00;;;11.30;99.90;;;;;;4993985;28;20206;-63
2023/04/19 06:43:59;;;;;;;2.20;2.10;;;11.30;99.90;;;;;;4995179;28;20788;-63
2023/04/19 06:46:27;;;;;;;2.03;1.93;;;11.40;99.90;;;;;;4994122;28;20233;-63
2023/04/19 06:48:55;;;;;;;2.33;2.23;;;11.50;99.90;;;;;;4994762;28;20216;-64
2023/04/19 06:51:22;;;;;;;2.00;1.90;;;11.50;99.90;;;;;;5003010;28;20316;-64
2023/04/19 06:53:49;;;;;;;2.07;1.97;;;11.60;99.90;;;;;;5004319;28;20245;-63
2023/04/19 06:56:16;;;;;;;2.20;2.10;;;11.60;99.90;;;;;;4994498;28;20210;-63
2023/04/19 06:58:43;;;;;;;2.40;2.30;;;11.60;99.90;;;;;;4994376;28;20213;-64
2023/04/19 07:01:10;;;;;;;2.43;2.27;;;11.50;99.90;;;;;;4993479;28;20212;-63
2023/04/19 07:03:37;;;;;;;2.10;2.00;;;11.60;99.90;;;;;;4994062;28;20260;-64
2023/04/19 07:06:05;;;;;;;2.17;2.07;;;11.50;99.90;;;;;;4994371;28;20220;-63
2023/04/19 07:08:32;;;;;;;2.30;2.20;;;11.70;99.90;;;;;;4998158;28;20268;-64
2023/04/19 07:10:59;;;;;;;2.20;2.10;;;11.90;99.90;;;;;;4994332;28;20226;-65
2023/04/19 07:13:26;;;;;;;2.67;2.50;;;11.90;99.90;;;;;;4995302;28;20318;-65
2023/04/19 07:15:53;;;;;;;2.60;2.50;;;11.90;99.90;;;;;;4996255;28;20248;-63
2023/04/19 07:18:19;;;;;;;2.30;2.20;;;12.00;99.90;;;;;;4996625;28;20210;-64
2023/04/19 07:20:48;;;;;;;2.20;2.10;;;12.00;99.90;;;;;;4992580;28;20702;-64
2023/04/19 07:23:17;;;;;;;2.47;2.37;;;12.20;99.90;;;;;;4992596;28;20209;-63
2023/04/19 07:25:43;;;;;;;2.73;2.47;;;12.30;99.90;;;;;;4992218;28;20244;-64
2023/04/19 07:28:10;;;;;;;2.40;2.30;;;12.40;99.90;;;;;;4992295;28;20245;-63
2023/04/19 07:30:37;;;;;;;2.93;2.73;;;12.50;99.90;;;;;;4991300;28;20226;-64
2023/04/19 07:33:04;;;;;;;2.60;2.50;;;12.60;99.90;;;;;;4992025;28;20384;-64
2023/04/19 07:35:31;;;;;;;2.80;2.60;;;12.50;99.90;;;;;;4991577;28;20630;-64
2023/04/19 07:37:58;;;;;;;3.10;3.00;;;12.70;99.90;;;;;;4992017;28;20297;-64
2023/04/19 07:40:26;;;;;;;3.50;3.30;;;12.70;99.90;;;;;;4991062;28;20240;-65
2023/04/19 07:42:55;;;;;;;2.80;2.70;;;12.70;99.90;;;;;;4991842;28;20209;-64
2023/04/19 07:45:22;;;;;;;2.60;2.50;;;12.70;99.90;;;;;;4991785;28;20210;-64
2023/04/19 07:47:49;;;;;;;3.60;3.40;;;12.80;99.90;;;;;;4992665;28;20293;-64
2023/04/19 07:50:16;;;;;;;2.80;2.70;;;12.90;99.90;;;;;;4992765;28;20652;-63
2023/04/19 07:52:43;;;;;;;3.03;2.83;;;13.00;99.90;;;;;;4996564;28;20226;-64
2023/04/19 07:55:10;;;;;;;2.90;2.70;;;13.10;99.90;;;;;;4993717;28;20216;-65
2023/04/19 07:57:38;;;;;;;2.70;2.60;;;13.20;99.90;;;;;;4994646;28;20788;-64
2023/04/19 08:00:08;;;;;;;2.77;2.67;;;13.30;99.90;;;;;;4997069;28;20230;-63
2023/04/19 08:02:35;;;;;;;2.50;2.40;;;13.40;99.90;;;;;;4996131;28;20238;-64
2023/04/19 08:05:02;;;;;;;3.93;2.40;;;13.50;99.90;;;;;;4994980;28;20673;-63
2023/04/19 08:07:29;;;;;;;2.50;2.40;;;13.50;99.90;;;;;;4994585;28;20245;-64
2023/04/19 08:09:56;;;;;;;2.47;2.37;;;13.60;99.90;;;;;;4992987;28;20731;-64
2023/04/19 08:12:23;;;;;;;2.60;2.50;;;13.50;99.90;;;;;;4993112;28;20221;-65
2023/04/19 08:14:51;;;;;;;2.50;2.40;;;13.60;99.90;;;;;;4993222;28;20300;-65
2023/04/19 08:17:20;;;;;;;2.77;2.57;;;13.60;99.90;;;;;;4993071;28;20296;-65
2023/04/19 08:19:48;;;;;;;2.50;2.40;;;13.60;99.90;;;;;;4992588;28;20324;-64
2023/04/19 08:22:15;;;;;;;2.50;2.40;;;13.70;99.90;;;;;;4993607;28;20206;-64
2023/04/19 08:24:42;;;;;;;2.20;2.10;;;13.80;99.90;;;;;;4993297;28;20205;-65
2023/04/19 08:27:09;;;;;;;2.40;2.30;;;13.90;99.90;;;;;;4993154;28;20756;-65
2023/04/19 08:29:37;;;;;;;2.23;2.13;;;13.90;99.90;;;;;;4991829;28;20229;-64
2023/04/19 08:32:06;;;;;;;2.50;2.30;;;13.90;99.90;;;;;;4996917;28;20221;-64
2023/04/19 08:34:35;;;;;;;2.40;2.30;;;13.90;99.90;;;;;;4996379;28;20293;-65
2023/04/19 08:37:02;;;;;;;2.20;2.10;;;13.90;99.90;;;;;;4997520;28;20217;-64
2023/04/19 08:39:29;;;;;;;2.50;2.40;;;13.80;99.90;;;;;;5004492;28;20226;-63
2023/04/19 08:41:56;;;;;;;2.30;2.20;;;13.80;99.90;;;;;;4998125;28;20218;-64
2023/04/19 08:44:25;;;;;;;2.20;2.10;;;13.70;99.90;;;;;;4998821;28;20213;-65
2023/04/19 08:46:52;;;;;;;2.23;2.13;;;13.70;99.90;;;;;;4998769;28;20209;-64
2023/04/19 08:49:21;;;;;;;2.53;2.43;;;13.70;99.90;;;;;;5005249;28;20253;-65
2023/04/19 08:51:50;;;;;;;2.50;2.40;;;13.70;99.90;;;;;;4995045;28;20293;-64
2023/04/19 08:54:18;;;;;;;2.37;2.27;;;13.80;99.90;;;;;;4995228;28;20676;-65
2023/04/19 08:56:45;;;;;;;1.90;1.80;;;13.80;99.90;;;;;;4995094;28;20206;-64
2023/04/19 08:59:12;;;;;;;2.10;2.00;;;13.90;99.90;;;;;;5002485;28;20229;-65
2023/04/19 09:01:39;;;;;;;2.20;2.10;;;13.90;99.90;;;;;;4995773;28;20268;-64
2023/04/19 09:04:07;;;;;;;2.10;2.00;;;14.10;99.90;;;;;;4995172;28;20206;-65
2023/04/19 09:06:37;;;;;;;2.20;2.10;;;14.30;99.90;;;;;;4995129;28;20256;-65
2023/04/19 09:09:16;;;;;;;2.20;2.10;;;14.50;99.90;;;;;;4994321;28;20228;-64
2023/04/19 09:11:42;;;;;;;2.30;2.10;;;14.50;99.90;;;;;;4995755;28;20210;-64
2023/04/19 09:14:10;;;;;;;2.00;1.90;;;14.60;99.90;;;;;;4995200;28;20216;-64
2023/04/19 09:16:38;;;;;;;2.00;1.90;;;14.60;99.90;;;;;;4994831;28;20560;-65
2023/04/19 09:19:05;;;;;;;2.10;2.00;;;14.60;99.90;;;;;;4994027;28;20238;-65
2023/04/19 09:21:33;;;;;;;2.10;2.00;;;14.60;99.90;;;;;;5004308;28;20214;-65
2023/04/19 09:24:03;;;;;;;2.03;1.93;;;14.70;99.90;;;;;;5002345;28;20608;-64
2023/04/19 09:26:29;;;;;;;2.70;2.60;;;14.90;99.90;;;;;;4995684;28;20751;-64
2023/04/19 09:28:57;;;;;;;2.17;2.07;;;15.10;99.90;;;;;;4995002;28;20212;-65
2023/04/19 09:31:25;;;;;;;1.83;1.73;;;15.20;99.90;;;;;;4994834;28;20627;-64
2023/04/19 09:33:53;;;;;;;2.00;1.90;;;15.30;99.90;;;;;;4995473;28;20237;-63
2023/04/19 09:36:30;;;;;;;2.10;2.00;;;15.20;99.90;;;;;;4995881;28;20306;-64
2023/04/19 09:38:58;;;;;;;2.20;2.10;;;15.00;99.90;;;;;;4995515;28;20205;-64
2023/04/19 09:41:26;;;;;;;2.15;2.05;;;15.00;99.90;;;;;;4994734;28;20566;-65
2023/04/19 09:43:53;;;;;;;1.97;1.87;;;14.90;99.90;;;;;;4995835;28;20631;-64
2023/04/19 09:46:34;;;;;;;1.92;1.83;;;14.80;99.90;;;;;;4995460;28;20220;-64
2023/04/19 09:49:18;;;;;;;1.80;1.70;;;14.80;99.90;;;;;;4994776;28;20236;-64
2023/04/19 09:51:46;;;;;;;1.63;1.60;;;14.80;99.90;;;;;;5002759;28;20213;-64
2023/04/19 09:54:15;;;;;;;2.10;2.00;;;14.80;99.90;;;;;;5000144;28;20239;-66
2023/04/19 09:56:43;;;;;;;2.00;1.90;;;14.90;99.90;;;;;;4995477;28;20238;-65
2023/04/19 09:59:10;;;;;;;1.52;1.50;;;14.80;99.90;;;;;;4994911;28;20252;-64
2023/04/19 10:01:42;;;;;;;1.90;1.80;;;14.70;99.90;;;;;;4994844;28;20212;-65
2023/04/19 10:04:10;;;;;;;1.50;1.50;;;14.70;99.90;;;;;;4994938;28;20206;-64
2023/04/19 10:06:38;;;;;;;1.50;1.50;;;14.70;99.90;;;;;;4994772;28;20264;-64
2023/04/19 10:09:07;;;;;;;1.90;1.80;;;14.80;99.90;;;;;;4994256;28;20236;-65
2023/04/19 10:11:37;;;;;;;1.50;1.50;;;14.90;99.90;;;;;;4996924;28;20246;-65
2023/04/19 10:14:07;;;;;;;1.60;1.50;;;14.90;99.90;;;;;;4999779;28;20225;-65
2023/04/19 10:16:35;;;;;;;1.80;1.70;;;14.80;99.90;;;;;;5000109;28;20213;-63
2023/04/19 10:19:04;;;;;;;1.63;1.63;;;15.00;99.90;;;;;;4999431;28;20291;-64
2023/04/19 10:21:32;;;;;;;1.40;1.40;;;15.00;99.90;;;;;;4999838;28;20206;-64
2023/04/19 10:23:59;;;;;;;1.57;1.57;;;15.10;99.90;;;;;;4996931;28;20202;-65
2023/04/19 10:26:26;;;;;;;1.50;1.40;;;15.20;99.90;;;;;;4994235;28;20214;-65
2023/04/19 10:28:55;;;;;;;1.63;1.53;;;15.30;99.90;;;;;;4994485;28;20206;-64
2023/04/19 10:31:25;;;;;;;1.73;1.63;;;15.40;99.90;;;;;;4993498;28;20210;-64
2023/04/19 10:33:52;;;;;;;1.53;1.47;;;15.40;99.90;;;;;;4994466;28;20257;-64
2023/04/19 10:36:21;;;;;;;1.37;1.37;;;15.40;99.90;;;;;;4995282;28;20642;-64
2023/04/19 10:38:51;;;;;;;1.40;1.33;;;15.40;99.90;;;;;;4993991;28;20206;-64
2023/04/19 10:41:18;;;;;;;1.40;1.40;;;15.40;99.90;;;;;;4994252;28;20206;-64
2023/04/19 10:43:46;;;;;;;1.30;1.30;;;15.30;99.90;;;;;;5000025;28;20205;-64
2023/04/19 10:46:16;;;;;;;1.20;1.20;;;15.20;99.90;;;;;;4998664;28;20216;-64
2023/04/19 10:48:56;;;;;;;1.27;1.27;;;15.10;99.90;;;;;;4994562;28;20214;-65
2023/04/19 10:51:27;;;;;;;1.20;1.20;;;15.20;99.90;;;;;;4993891;28;20664;-64
2023/04/19 10:53:56;;;;;;;1.30;1.30;;;15.30;99.90;;;;;;4993171;28;20267;-64
2023/04/19 10:56:59;;;;;;;1.40;1.40;;;15.30;99.90;;;;;;4994392;28;20202;-63
2023/04/19 10:59:27;;;;;;;1.17;1.00;;;15.40;99.90;;;;;;4992127;28;20236;-64
2023/04/19 11:01:56;;;;;;;1.40;1.40;;;15.40;99.90;;;;;;4993866;28;20276;-65
2023/04/19 11:04:40;;;;;;;1.20;1.20;;;15.60;99.90;;;;;;4995400;28;20210;-64
2023/04/19 11:07:07;;;;;;;1.30;1.30;;;15.60;99.90;;;;;;4995324;28;20607;-64
2023/04/19 11:09:35;;;;;;;1.20;1.20;;;15.70;99.90;;;;;;4994397;28;20230;-64
2023/04/19 11:12:04;;;;;;;1.40;1.30;;;15.60;99.90;;;;;;4995941;28;20288;-64
2023/04/19 11:14:32;;;;;;;1.30;1.30;;;15.60;99.90;;;;;;4994990;28;20268;-64
2023/04/19 11:17:00;;;;;;;1.25;1.23;;;15.40;99.90;;;;;;4995630;28;20267;-65
2023/04/19 11:19:28;;;;;;;1.10;1.10;;;15.40;99.90;;;;;;5008477;28;20804;-64
2023/04/19 11:21:59;;;;;;;1.00;1.00;;;15.50;99.90;;;;;;5010861;28;20261;-64
2023/04/19 11:24:26;;;;;;;1.20;1.20;;;15.50;99.90;;;;;;5009562;28;20222;-64
2023/04/19 11:26:55;;;;;;;1.13;1.13;;;15.50;99.90;;;;;;5010210;28;20387;-69
2023/04/19 11:29:22;;;;;;;1.20;1.20;;;15.70;99.90;;;;;;5009122;28;20312;-64
2023/04/19 11:31:49;;;;;;;1.25;1.25;;;15.80;99.90;;;;;;5008350;28;20269;-66
2023/04/19 11:34:18;;;;;;;1.65;1.55;;;15.80;99.90;;;;;;5007385;28;20289;-64
2023/04/19 11:36:51;;;;;;;1.50;1.50;;;15.70;99.90;;;;;;5007955;28;20285;-63
2023/04/19 11:39:18;;;;;;;1.60;1.50;;;15.50;99.90;;;;;;4998923;28;20309;-66
2023/04/19 11:41:46;;;;;;;1.70;1.60;;;15.40;99.90;;;;;;4993761;28;20205;-63
2023/04/19 11:44:19;;;;;;;1.70;1.60;;;15.20;99.90;;;;;;4995208;28;20241;-65
2023/04/19 11:46:59;;;;;;;1.40;1.40;;;15.20;99.90;;;;;;4994500;28;20284;-64
2023/04/19 11:49:27;;;;;;;1.50;1.50;;;15.10;99.90;;;;;;4996446;28;20225;-65
2023/04/19 11:51:58;;;;;;;1.63;1.53;;;15.40;99.90;;;;;;4997482;28;20210;-64
2023/04/19 11:54:25;;;;;;;1.40;1.40;;;15.30;99.90;;;;;;4998641;28;20226;-66
2023/04/19 11:57:00;;;;;;;1.70;1.60;;;15.40;99.90;;;;;;4996697;28;20220;-64
2023/04/19 11:59:28;;;;;;;1.77;1.67;;;15.50;99.90;;;;;;4992680;28;20709;-64
2023/04/19 12:01:55;;;;;;;1.60;1.60;;;15.70;99.90;;;;;;4994388;28;20312;-64
2023/04/19 12:04:22;;;;;;;2.57;1.97;;;16.00;99.90;;;;;;4995993;28;20212;-64
2023/04/19 12:06:59;;;;;;;1.53;1.43;;;16.20;99.90;;;;;;4995022;28;20206;-64
2023/04/19 12:09:26;;;;;;;2.27;2.07;;;16.50;99.90;;;;;;4992408;28;20293;-65
2023/04/19 12:11:53;;;;;;;2.37;2.17;;;16.60;99.90;;;;;;4993035;28;20216;-64
2023/04/19 12:14:22;;;;;;;4.17;2.70;;;16.60;99.90;;;;;;4993407;28;20234;-64
2023/04/19 12:17:06;;;;;;;3.80;2.27;;;16.70;99.90;;;;;;4993361;28;20206;-63
2023/04/19 12:19:36;;;;;;;1.60;1.50;;;16.60;99.90;;;;;;4991512;28;20236;-65
2023/04/19 12:22:14;;;;;;;1.50;1.50;;;16.50;99.90;;;;;;4992281;28;20279;-63
2023/04/19 12:24:42;;;;;;;1.63;1.40;;;16.40;99.90;;;;;;4993771;28;20208;-64
2023/04/19 12:27:10;;;;;;;1.50;1.40;;;16.30;99.90;;;;;;4993145;28;20328;-63
2023/04/19 12:29:37;;;;;;;1.30;1.30;;;16.30;99.90;;;;;;4992430;28;20234;-64
2023/04/19 12:32:05;;;;;;;1.63;1.53;;;16.40;99.90;;;;;;4992997;28;20205;-64
2023/04/19 12:34:32;;;;;;;1.63;1.52;;;16.30;99.90;;;;;;4992806;28;20245;-65
2023/04/19 12:36:58;;;;;;;1.73;1.60;;;16.10;99.90;;;;;;4993652;28;20228;-64
2023/04/19 12:39:27;;;;;;;1.40;1.40;;;16.00;99.90;;;;;;4992101;28;20306;-64
2023/04/19 12:41:54;;;;;;;1.30;1.30;;;15.90;99.90;;;;;;4992072;28;20218;-65
2023/04/19 12:44:21;;;;;;;1.33;1.33;;;15.80;99.90;;;;;;4991051;28;20216;-64
2023/04/19 12:46:48;;;;;;;1.40;1.40;;;15.80;99.90;;;;;;4991831;28;20241;-64
2023/04/19 12:49:17;;;;;;;1.43;1.33;;;15.80;99.90;;;;;;4990764;28;20230;-64
2023/04/19 12:51:46;;;;;;;1.23;1.23;;;15.70;99.90;;;;;;4991024;28;20205;-63